»·PEaware :: N707WT KCRQ-KSNA

N707WT :: KCRQ-KSNA

FLIGHT INFORMATION

Flight Status: Arrived
Operator: Privately registered:
United States
More flights under this callsign
Pilot: Mark B. (9455)
Aircraft: CIRRUS SR-20
(SR20)
More flights by this aircraft type
Origin: KCRQ McClellan-Palomar
United States
Destination: KSNA John Wayne-Orange Co
United States
More flights between these airports :: More routes between these airports
Route: +OCN V23 SLI
File this flight plan on PilotEdge
Remarks:
Altitude:
(Current/Filed)
4,000ft
Speed:
(Current/Filed)
145kts
Departed: 01-Mar-19 07:08 PM
Arrived: 01-Mar-19 07:46 PM
Distance/Time
Traveled:
44nm/0:38
Distance/Time
To Go:
Arrived

Flight Plot

Page will automatically refresh every two minutes.


Map Options




Map Legend


Flown Route
Filed Route
Departure Airport
Arrival Airport
Navaid (VOR, NDB)
Fix

Horizontal Profiles

Position Reports

Time Latitude Longitude Heading Altitude Ground
Speed
01-Mar-19 18:52 33.127538 -117.274790 258 306ft 0kts
01-Mar-19 18:53 33.127538 -117.274790 258 306ft 0kts
01-Mar-19 18:54 33.127538 -117.274790 258 306ft 0kts
01-Mar-19 18:55 33.127538 -117.274790 258 306ft 0kts
01-Mar-19 18:56 33.127538 -117.274790 258 306ft 0kts
01-Mar-19 18:57 33.127538 -117.274790 258 306ft 0kts
01-Mar-19 18:58 33.127538 -117.274790 258 306ft 0kts
01-Mar-19 19:00 33.127538 -117.274790 258 306ft 0kts
01-Mar-19 19:01 33.127538 -117.274790 258 306ft 0kts
01-Mar-19 19:02 33.127538 -117.274790 258 306ft 0kts
01-Mar-19 19:03 33.127538 -117.274790 258 306ft 0kts
01-Mar-19 19:04 33.127828 -117.275385 0 308ft 1kts
01-Mar-19 19:05 33.128748 -117.272749 36 300ft 0kts
01-Mar-19 19:06 33.128748 -117.272749 36 300ft 0kts
01-Mar-19 19:07 33.128748 -117.272749 36 300ft 0kts
01-Mar-19 19:08 33.128447 -117.280065 265 453ft 70kts
01-Mar-19 19:09 33.125735 -117.306819 261 1482ft 90kts
01-Mar-19 19:10 33.126495 -117.336725 296 2656ft 93kts
01-Mar-19 19:11 33.147510 -117.352235 332 3741ft 93kts
01-Mar-19 19:12 33.167710 -117.366629 328 4691ft 94kts
01-Mar-19 19:13 33.188929 -117.381291 326 5583ft 99kts
01-Mar-19 19:14 33.214336 -117.399933 328 5836ft 142kts
01-Mar-19 19:15 33.244870 -117.421667 324 5853ft 151kts
01-Mar-19 19:16 33.270176 -117.452540 312 5867ft 156kts
01-Mar-19 19:17 33.297303 -117.483270 318 5851ft 158kts
01-Mar-19 19:18 33.324820 -117.513866 311 5896ft 156kts
01-Mar-19 19:18 33.344714 -117.540974 314 5845ft 158kts
01-Mar-19 19:20 33.379179 -117.579876 315 5883ft 159kts
01-Mar-19 19:21 33.408330 -117.611958 322 5889ft 157kts
01-Mar-19 19:21 33.438168 -117.638281 323 5847ft 160kts
01-Mar-19 19:22 33.474069 -117.669987 321 5798ft 161kts
01-Mar-19 19:24 33.513933 -117.709716 319 5815ft 159kts
01-Mar-19 19:24 33.542712 -117.736997 320 5884ft 156kts
01-Mar-19 19:25 33.577839 -117.769135 322 5876ft 157kts
01-Mar-19 19:26 33.608497 -117.797942 323 5854ft 161kts
01-Mar-19 19:27 33.638287 -117.825877 322 5886ft 156kts
01-Mar-19 19:28 33.667671 -117.853315 322 5730ft 163kts
01-Mar-19 19:29 33.698713 -117.880088 324 5189ft 169kts
01-Mar-19 19:30 33.735229 -117.914096 322 4348ft 173kts
01-Mar-19 19:31 33.769868 -117.941413 351 3525ft 179kts
01-Mar-19 19:32 33.812263 -117.914369 35 2931ft 172kts
01-Mar-19 19:33 33.849402 -117.884965 33 2854ft 158kts
01-Mar-19 19:34 33.873188 -117.841002 58 2929ft 156kts
01-Mar-19 19:35 33.893253 -117.792876 66 2866ft 157kts
01-Mar-19 19:36 33.902384 -117.743494 121 2904ft 156kts
01-Mar-19 19:37 33.867437 -117.746794 209 2709ft 124kts
01-Mar-19 19:38 33.839296 -117.764352 208 2615ft 94kts
01-Mar-19 19:39 33.815980 -117.779278 211 2557ft 93kts
01-Mar-19 19:40 33.792863 -117.794764 207 2728ft 96kts
01-Mar-19 19:41 33.766146 -117.811140 208 2058ft 110kts
01-Mar-19 19:42 33.739664 -117.829555 204 1416ft 107kts
01-Mar-19 19:43 33.711839 -117.846377 210 748ft 112kts
01-Mar-19 19:44 33.689561 -117.859929 207 443ft 83kts
01-Mar-19 19:45 33.676106 -117.868564 203 47ft 20kts

Navigation Log

Ident Type
Flight plan parsing failed, navigation log unavailable